sensor_id;sensor_type;location;lat;lon;timestamp;P1;durP1;ratioP1;P2;durP2;ratioP2
75593;SDS011;64176;49.156;7.810;2022-10-16T00:00:58;5.43;;;2.28;;
75593;SDS011;64176;49.156;7.810;2022-10-16T00:03:48;4.75;;;3.00;;
75593;SDS011;64176;49.156;7.810;2022-10-16T00:06:36;4.97;;;2.45;;
75593;SDS011;64176;49.156;7.810;2022-10-16T00:09:25;5.22;;;2.80;;
75593;SDS011;64176;49.156;7.810;2022-10-16T00:12:09;6.32;;;1.67;;
75593;SDS011;64176;49.156;7.810;2022-10-16T00:14:53;6.35;;;2.00;;
75593;SDS011;64176;49.156;7.810;2022-10-16T00:17:37;6.20;;;2.17;;
75593;SDS011;64176;49.156;7.810;2022-10-16T00:20:21;6.53;;;2.28;;
75593;SDS011;64176;49.156;7.810;2022-10-16T00:23:05;6.68;;;2.15;;
75593;SDS011;64176;49.156;7.810;2022-10-16T00:25:56;3.65;;;1.75;;
75593;SDS011;64176;49.156;7.810;2022-10-16T00:28:41;5.28;;;1.88;;
75593;SDS011;64176;49.156;7.810;2022-10-16T00:31:25;1.92;;;1.27;;
75593;SDS011;64176;49.156;7.810;2022-10-16T00:34:10;7.78;;;2.47;;
75593;SDS011;64176;49.156;7.810;2022-10-16T00:36:54;3.30;;;2.03;;
75593;SDS011;64176;49.156;7.810;2022-10-16T00:39:38;2.22;;;1.42;;
75593;SDS011;64176;49.156;7.810;2022-10-16T00:42:22;4.63;;;1.42;;
75593;SDS011;64176;49.156;7.810;2022-10-16T00:45:09;3.30;;;1.63;;
75593;SDS011;64176;49.156;7.810;2022-10-16T00:47:54;3.60;;;2.08;;
75593;SDS011;64176;49.156;7.810;2022-10-16T00:50:39;4.95;;;1.40;;
75593;SDS011;64176;49.156;7.810;2022-10-16T00:53:27;4.55;;;1.80;;
75593;SDS011;64176;49.156;7.810;2022-10-16T00:56:12;2.47;;;1.20;;
75593;SDS011;64176;49.156;7.810;2022-10-16T00:58:57;3.35;;;1.40;;
75593;SDS011;64176;49.156;7.810;2022-10-16T01:01:43;3.53;;;1.45;;
75593;SDS011;64176;49.156;7.810;2022-10-16T01:04:27;1.85;;;1.30;;
75593;SDS011;64176;49.156;7.810;2022-10-16T01:10:38;5.93;;;1.88;;
75593;SDS011;64176;49.156;7.810;2022-10-16T01:13:31;4.40;;;1.77;;
75593;SDS011;64176;49.156;7.810;2022-10-16T01:28:28;3.75;;;3.10;;
75593;SDS011;64176;49.156;7.810;2022-10-16T01:31:26;3.10;;;2.70;;
75593;SDS011;64176;49.156;7.810;2022-10-16T01:34:16;5.30;;;3.08;;
75593;SDS011;64176;49.156;7.810;2022-10-16T01:37:15;6.50;;;2.72;;
75593;SDS011;64176;49.156;7.810;2022-10-16T01:40:05;5.20;;;2.28;;
75593;SDS011;64176;49.156;7.810;2022-10-16T01:42:54;2.88;;;1.98;;
75593;SDS011;64176;49.156;7.810;2022-10-16T01:45:42;2.38;;;1.58;;
75593;SDS011;64176;49.156;7.810;2022-10-16T01:51:20;4.97;;;1.45;;
75593;SDS011;64176;49.156;7.810;2022-10-16T01:54:07;2.47;;;1.85;;
75593;SDS011;64176;49.156;7.810;2022-10-16T01:56:52;2.50;;;1.80;;
75593;SDS011;64176;49.156;7.810;2022-10-16T01:59:44;6.47;;;2.53;;
75593;SDS011;64176;49.156;7.810;2022-10-16T02:02:32;3.83;;;2.65;;
75593;SDS011;64176;49.156;7.810;2022-10-16T02:08:14;6.80;;;2.78;;
75593;SDS011;64176;49.156;7.810;2022-10-16T02:10:59;5.65;;;2.13;;
75593;SDS011;64176;49.156;7.810;2022-10-16T02:13:51;4.85;;;1.95;;
75593;SDS011;64176;49.156;7.810;2022-10-16T02:16:40;4.22;;;1.67;;
75593;SDS011;64176;49.156;7.810;2022-10-16T02:19:29;2.83;;;2.47;;
75593;SDS011;64176;49.156;7.810;2022-10-16T02:22:15;3.60;;;2.40;;
75593;SDS011;64176;49.156;7.810;2022-10-16T02:25:29;2.95;;;2.25;;
75593;SDS011;64176;49.156;7.810;2022-10-16T02:28:22;5.38;;;2.80;;
75593;SDS011;64176;49.156;7.810;2022-10-16T02:31:13;4.22;;;2.50;;
75593;SDS011;64176;49.156;7.810;2022-10-16T02:34:02;2.65;;;2.20;;
75593;SDS011;64176;49.156;7.810;2022-10-16T02:36:49;6.68;;;2.03;;
75593;SDS011;64176;49.156;7.810;2022-10-16T02:39:34;8.52;;;2.63;;
75593;SDS011;64176;49.156;7.810;2022-10-16T02:42:19;5.28;;;2.47;;
75593;SDS011;64176;49.156;7.810;2022-10-16T02:45:03;6.10;;;3.35;;
75593;SDS011;64176;49.156;7.810;2022-10-16T02:47:48;3.78;;;2.45;;
75593;SDS011;64176;49.156;7.810;2022-10-16T02:50:32;6.13;;;3.25;;
75593;SDS011;64176;49.156;7.810;2022-10-16T02:53:17;8.52;;;2.55;;
75593;SDS011;64176;49.156;7.810;2022-10-16T02:56:03;6.22;;;2.60;;
75593;SDS011;64176;49.156;7.810;2022-10-16T02:58:48;5.50;;;2.97;;
75593;SDS011;64176;49.156;7.810;2022-10-16T03:01:32;5.80;;;3.10;;
75593;SDS011;64176;49.156;7.810;2022-10-16T03:04:16;4.85;;;2.40;;
75593;SDS011;64176;49.156;7.810;2022-10-16T03:07:01;5.55;;;2.17;;
75593;SDS011;64176;49.156;7.810;2022-10-16T03:09:45;3.58;;;2.60;;
75593;SDS011;64176;49.156;7.810;2022-10-16T03:12:29;4.00;;;2.30;;
75593;SDS011;64176;49.156;7.810;2022-10-16T03:17:59;3.85;;;2.25;;
75593;SDS011;64176;49.156;7.810;2022-10-16T03:20:44;3.55;;;2.70;;
75593;SDS011;64176;49.156;7.810;2022-10-16T03:23:28;3.70;;;2.40;;
75593;SDS011;64176;49.156;7.810;2022-10-16T03:26:12;6.57;;;2.75;;
75593;SDS011;64176;49.156;7.810;2022-10-16T03:28:56;5.80;;;2.70;;
75593;SDS011;64176;49.156;7.810;2022-10-16T03:31:40;6.43;;;2.30;;
75593;SDS011;64176;49.156;7.810;2022-10-16T03:34:24;4.07;;;2.33;;
75593;SDS011;64176;49.156;7.810;2022-10-16T03:37:09;8.10;;;2.53;;
75593;SDS011;64176;49.156;7.810;2022-10-16T03:39:53;3.85;;;2.80;;
75593;SDS011;64176;49.156;7.810;2022-10-16T03:42:37;5.03;;;2.17;;
75593;SDS011;64176;49.156;7.810;2022-10-16T03:45:20;4.07;;;2.30;;
75593;SDS011;64176;49.156;7.810;2022-10-16T03:48:04;9.77;;;3.78;;
75593;SDS011;64176;49.156;7.810;2022-10-16T03:50:48;4.55;;;2.15;;
75593;SDS011;64176;49.156;7.810;2022-10-16T03:53:33;2.55;;;2.30;;
75593;SDS011;64176;49.156;7.810;2022-10-16T03:56:17;7.53;;;2.92;;
75593;SDS011;64176;49.156;7.810;2022-10-16T04:01:48;5.25;;;2.47;;
75593;SDS011;64176;49.156;7.810;2022-10-16T04:04:34;4.38;;;2.10;;
75593;SDS011;64176;49.156;7.810;2022-10-16T04:07:19;8.15;;;2.63;;
75593;SDS011;64176;49.156;7.810;2022-10-16T04:10:03;3.15;;;2.30;;
75593;SDS011;64176;49.156;7.810;2022-10-16T04:12:48;6.70;;;2.63;;
75593;SDS011;64176;49.156;7.810;2022-10-16T04:15:31;5.10;;;2.25;;
75593;SDS011;64176;49.156;7.810;2022-10-16T04:18:15;3.65;;;2.40;;
75593;SDS011;64176;49.156;7.810;2022-10-16T04:21:03;3.53;;;2.25;;
75593;SDS011;64176;49.156;7.810;2022-10-16T04:23:48;5.30;;;2.95;;
75593;SDS011;64176;49.156;7.810;2022-10-16T04:26:33;6.43;;;2.47;;
75593;SDS011;64176;49.156;7.810;2022-10-16T04:29:17;10.30;;;3.35;;
75593;SDS011;64176;49.156;7.810;2022-10-16T04:32:01;5.40;;;2.50;;
75593;SDS011;64176;49.156;7.810;2022-10-16T04:34:44;6.55;;;3.00;;
75593;SDS011;64176;49.156;7.810;2022-10-16T04:37:28;4.53;;;2.38;;
75593;SDS011;64176;49.156;7.810;2022-10-16T04:40:13;4.68;;;2.60;;
75593;SDS011;64176;49.156;7.810;2022-10-16T04:42:57;5.00;;;3.05;;
75593;SDS011;64176;49.156;7.810;2022-10-16T04:45:41;5.82;;;2.80;;
75593;SDS011;64176;49.156;7.810;2022-10-16T04:48:25;8.05;;;3.03;;
75593;SDS011;64176;49.156;7.810;2022-10-16T04:51:10;4.20;;;2.50;;
75593;SDS011;64176;49.156;7.810;2022-10-16T04:53:54;12.75;;;3.83;;
75593;SDS011;64176;49.156;7.810;2022-10-16T04:56:38;5.03;;;2.97;;
75593;SDS011;64176;49.156;7.810;2022-10-16T04:59:34;7.22;;;3.20;;
75593;SDS011;64176;49.156;7.810;2022-10-16T05:02:17;6.57;;;3.03;;
75593;SDS011;64176;49.156;7.810;2022-10-16T05:05:07;8.82;;;2.92;;
75593;SDS011;64176;49.156;7.810;2022-10-16T05:07:51;6.32;;;2.78;;
75593;SDS011;64176;49.156;7.810;2022-10-16T05:10:35;6.15;;;3.05;;
75593;SDS011;64176;49.156;7.810;2022-10-16T05:13:19;4.90;;;2.97;;
75593;SDS011;64176;49.156;7.810;2022-10-16T05:16:06;4.10;;;2.70;;
75593;SDS011;64176;49.156;7.810;2022-10-16T05:18:51;6.75;;;3.88;;
75593;SDS011;64176;49.156;7.810;2022-10-16T05:21:36;8.00;;;3.92;;
75593;SDS011;64176;49.156;7.810;2022-10-16T05:24:20;8.85;;;3.13;;
75593;SDS011;64176;49.156;7.810;2022-10-16T05:27:04;5.50;;;2.70;;
75593;SDS011;64176;49.156;7.810;2022-10-16T05:29:48;3.20;;;2.35;;
75593;SDS011;64176;49.156;7.810;2022-10-16T05:32:33;5.20;;;2.60;;
75593;SDS011;64176;49.156;7.810;2022-10-16T05:35:17;7.72;;;3.00;;
75593;SDS011;64176;49.156;7.810;2022-10-16T05:38:02;4.88;;;2.50;;
75593;SDS011;64176;49.156;7.810;2022-10-16T05:40:52;13.23;;;7.45;;
75593;SDS011;64176;49.156;7.810;2022-10-16T05:43:36;12.82;;;6.88;;
75593;SDS011;64176;49.156;7.810;2022-10-16T05:46:20;11.65;;;5.43;;
75593;SDS011;64176;49.156;7.810;2022-10-16T05:49:07;8.60;;;5.22;;
75593;SDS011;64176;49.156;7.810;2022-10-16T05:51:51;13.45;;;6.18;;
75593;SDS011;64176;49.156;7.810;2022-10-16T05:54:34;11.75;;;6.50;;
75593;SDS011;64176;49.156;7.810;2022-10-16T05:57:18;12.20;;;7.55;;
75593;SDS011;64176;49.156;7.810;2022-10-16T06:00:03;8.40;;;5.88;;
75593;SDS011;64176;49.156;7.810;2022-10-16T06:02:56;13.90;;;5.43;;
75593;SDS011;64176;49.156;7.810;2022-10-16T06:05:40;7.07;;;4.85;;
75593;SDS011;64176;49.156;7.810;2022-10-16T06:08:26;7.38;;;5.28;;
75593;SDS011;64176;49.156;7.810;2022-10-16T06:11:14;8.02;;;5.25;;
75593;SDS011;64176;49.156;7.810;2022-10-16T06:14:01;11.65;;;5.57;;
75593;SDS011;64176;49.156;7.810;2022-10-16T06:16:49;8.82;;;5.70;;
75593;SDS011;64176;49.156;7.810;2022-10-16T06:19:34;10.57;;;6.35;;
75593;SDS011;64176;49.156;7.810;2022-10-16T06:22:17;14.75;;;6.45;;
75593;SDS011;64176;49.156;7.810;2022-10-16T06:25:01;9.48;;;6.07;;
75593;SDS011;64176;49.156;7.810;2022-10-16T06:27:48;7.90;;;5.63;;
75593;SDS011;64176;49.156;7.810;2022-10-16T06:30:32;12.32;;;5.93;;
75593;SDS011;64176;49.156;7.810;2022-10-16T06:33:16;8.52;;;5.78;;
75593;SDS011;64176;49.156;7.810;2022-10-16T06:36:04;16.33;;;9.23;;
75593;SDS011;64176;49.156;7.810;2022-10-16T06:38:53;10.73;;;5.40;;
75593;SDS011;64176;49.156;7.810;2022-10-16T06:41:37;28.23;;;15.18;;
75593;SDS011;64176;49.156;7.810;2022-10-16T06:44:32;22.80;;;13.98;;
75593;SDS011;64176;49.156;7.810;2022-10-16T06:47:16;22.27;;;14.82;;
75593;SDS011;64176;49.156;7.810;2022-10-16T06:50:01;12.98;;;8.40;;
75593;SDS011;64176;49.156;7.810;2022-10-16T06:52:44;16.30;;;8.52;;
75593;SDS011;64176;49.156;7.810;2022-10-16T06:55:28;13.93;;;8.30;;
75593;SDS011;64176;49.156;7.810;2022-10-16T06:58:12;24.15;;;12.23;;
75593;SDS011;64176;49.156;7.810;2022-10-16T07:00:56;28.10;;;13.70;;
75593;SDS011;64176;49.156;7.810;2022-10-16T07:03:41;16.20;;;8.05;;
75593;SDS011;64176;49.156;7.810;2022-10-16T07:06:27;17.15;;;8.20;;
75593;SDS011;64176;49.156;7.810;2022-10-16T07:09:15;19.85;;;8.52;;
75593;SDS011;64176;49.156;7.810;2022-10-16T07:11:59;12.60;;;6.95;;
75593;SDS011;64176;49.156;7.810;2022-10-16T07:17:29;10.77;;;6.78;;
75593;SDS011;64176;49.156;7.810;2022-10-16T07:20:13;9.95;;;6.82;;
75593;SDS011;64176;49.156;7.810;2022-10-16T07:22:57;9.55;;;7.20;;
75593;SDS011;64176;49.156;7.810;2022-10-16T07:25:41;9.55;;;7.63;;
75593;SDS011;64176;49.156;7.810;2022-10-16T07:28:25;10.13;;;7.47;;
75593;SDS011;64176;49.156;7.810;2022-10-16T07:31:11;15.13;;;9.82;;
75593;SDS011;64176;49.156;7.810;2022-10-16T07:33:57;10.30;;;7.95;;
75593;SDS011;64176;49.156;7.810;2022-10-16T07:36:47;10.45;;;7.38;;
75593;SDS011;64176;49.156;7.810;2022-10-16T07:39:31;7.72;;;5.57;;
75593;SDS011;64176;49.156;7.810;2022-10-16T07:42:15;7.30;;;6.05;;
75593;SDS011;64176;49.156;7.810;2022-10-16T07:44:59;8.55;;;7.65;;
75593;SDS011;64176;49.156;7.810;2022-10-16T07:47:43;8.73;;;7.82;;
75593;SDS011;64176;49.156;7.810;2022-10-16T07:50:27;10.10;;;7.10;;
75593;SDS011;64176;49.156;7.810;2022-10-16T07:53:11;7.30;;;6.68;;
75593;SDS011;64176;49.156;7.810;2022-10-16T07:55:57;5.63;;;4.97;;
75593;SDS011;64176;49.156;7.810;2022-10-16T07:58:45;5.30;;;3.30;;
75593;SDS011;64176;49.156;7.810;2022-10-16T08:01:29;3.95;;;2.45;;
75593;SDS011;64176;49.156;7.810;2022-10-16T08:04:13;5.40;;;2.92;;
75593;SDS011;64176;49.156;7.810;2022-10-16T08:07:00;4.50;;;2.33;;
75593;SDS011;64176;49.156;7.810;2022-10-16T08:09:44;5.20;;;2.22;;
75593;SDS011;64176;49.156;7.810;2022-10-16T08:12:28;4.82;;;2.03;;
75593;SDS011;64176;49.156;7.810;2022-10-16T08:15:18;17.65;;;9.32;;
75593;SDS011;64176;49.156;7.810;2022-10-16T08:18:04;29.50;;;13.75;;
75593;SDS011;64176;49.156;7.810;2022-10-16T08:20:54;17.70;;;9.07;;
75593;SDS011;64176;49.156;7.810;2022-10-16T08:23:40;8.70;;;3.35;;
75593;SDS011;64176;49.156;7.810;2022-10-16T08:26:25;7.35;;;3.13;;
75593;SDS011;64176;49.156;7.810;2022-10-16T08:29:09;9.10;;;3.85;;
75593;SDS011;64176;49.156;7.810;2022-10-16T08:31:53;3.03;;;2.20;;
75593;SDS011;64176;49.156;7.810;2022-10-16T08:34:37;4.68;;;2.00;;
75593;SDS011;64176;49.156;7.810;2022-10-16T08:37:24;3.08;;;2.28;;
75593;SDS011;64176;49.156;7.810;2022-10-16T08:40:17;4.10;;;3.00;;
75593;SDS011;64176;49.156;7.810;2022-10-16T08:49:15;2.50;;;2.22;;
75593;SDS011;64176;49.156;7.810;2022-10-16T08:52:00;3.63;;;2.90;;
75593;SDS011;64176;49.156;7.810;2022-10-16T08:54:45;4.72;;;3.00;;
75593;SDS011;64176;49.156;7.810;2022-10-16T08:57:33;7.07;;;4.40;;
75593;SDS011;64176;49.156;7.810;2022-10-16T09:00:18;13.63;;;7.38;;
75593;SDS011;64176;49.156;7.810;2022-10-16T09:03:14;10.02;;;7.13;;
75593;SDS011;64176;49.156;7.810;2022-10-16T09:15:16;9.05;;;5.65;;
75593;SDS011;64176;49.156;7.810;2022-10-16T09:18:16;5.13;;;2.05;;
75593;SDS011;64176;49.156;7.810;2022-10-16T09:24:19;1.80;;;1.35;;
75593;SDS011;64176;49.156;7.810;2022-10-16T09:27:14;2.35;;;1.73;;
75593;SDS011;64176;49.156;7.810;2022-10-16T09:29:59;3.60;;;1.77;;
75593;SDS011;64176;49.156;7.810;2022-10-16T09:32:44;3.05;;;1.63;;
75593;SDS011;64176;49.156;7.810;2022-10-16T09:35:40;3.72;;;1.63;;
75593;SDS011;64176;49.156;7.810;2022-10-16T09:38:31;3.72;;;1.50;;
75593;SDS011;64176;49.156;7.810;2022-10-16T09:41:18;3.60;;;1.73;;
75593;SDS011;64176;49.156;7.810;2022-10-16T09:44:06;1.52;;;1.30;;
75593;SDS011;64176;49.156;7.810;2022-10-16T09:47:12;2.33;;;1.65;;
75593;SDS011;64176;49.156;7.810;2022-10-16T09:52:46;2.25;;;1.42;;
75593;SDS011;64176;49.156;7.810;2022-10-16T09:55:30;1.77;;;1.48;;
75593;SDS011;64176;49.156;7.810;2022-10-16T09:58:14;2.80;;;1.40;;
75593;SDS011;64176;49.156;7.810;2022-10-16T10:06:33;2.72;;;1.13;;
75593;SDS011;64176;49.156;7.810;2022-10-16T10:09:25;2.08;;;1.30;;
75593;SDS011;64176;49.156;7.810;2022-10-16T10:12:17;3.33;;;1.60;;
75593;SDS011;64176;49.156;7.810;2022-10-16T10:15:05;2.75;;;1.25;;
75593;SDS011;64176;49.156;7.810;2022-10-16T10:17:52;2.97;;;1.27;;
75593;SDS011;64176;49.156;7.810;2022-10-16T10:23:22;3.22;;;1.48;;
75593;SDS011;64176;49.156;7.810;2022-10-16T10:26:15;3.03;;;1.50;;
75593;SDS011;64176;49.156;7.810;2022-10-16T10:35:33;1.80;;;1.50;;
75593;SDS011;64176;49.156;7.810;2022-10-16T10:48:04;7.18;;;2.38;;
75593;SDS011;64176;49.156;7.810;2022-10-16T11:00:21;2.95;;;1.50;;
75593;SDS011;64176;49.156;7.810;2022-10-16T11:06:55;3.05;;;1.38;;
75593;SDS011;64176;49.156;7.810;2022-10-16T11:09:51;2.20;;;1.70;;
75593;SDS011;64176;49.156;7.810;2022-10-16T11:12:40;3.40;;;1.63;;
75593;SDS011;64176;49.156;7.810;2022-10-16T11:15:32;3.58;;;1.58;;
75593;SDS011;64176;49.156;7.810;2022-10-16T11:18:32;3.03;;;1.80;;
75593;SDS011;64176;49.156;7.810;2022-10-16T11:21:24;2.90;;;1.50;;
75593;SDS011;64176;49.156;7.810;2022-10-16T11:24:14;10.32;;;2.50;;
75593;SDS011;64176;49.156;7.810;2022-10-16T11:27:07;8.13;;;1.90;;
75593;SDS011;64176;49.156;7.810;2022-10-16T11:29:57;2.65;;;1.40;;
75593;SDS011;64176;49.156;7.810;2022-10-16T11:38:34;5.03;;;1.90;;
75593;SDS011;64176;49.156;7.810;2022-10-16T11:41:29;4.93;;;1.67;;
75593;SDS011;64176;49.156;7.810;2022-10-16T11:44:33;4.57;;;1.65;;
75593;SDS011;64176;49.156;7.810;2022-10-16T11:50:42;3.25;;;1.80;;
75593;SDS011;64176;49.156;7.810;2022-10-16T11:56:38;3.47;;;2.38;;
75593;SDS011;64176;49.156;7.810;2022-10-16T11:59:36;17.02;;;11.93;;
75593;SDS011;64176;49.156;7.810;2022-10-16T12:08:38;3.40;;;1.70;;
75593;SDS011;64176;49.156;7.810;2022-10-16T12:16:55;2.70;;;1.88;;
75593;SDS011;64176;49.156;7.810;2022-10-16T12:19:41;3.38;;;2.03;;
75593;SDS011;64176;49.156;7.810;2022-10-16T12:22:25;5.00;;;1.70;;
75593;SDS011;64176;49.156;7.810;2022-10-16T12:25:53;4.85;;;2.28;;
75593;SDS011;64176;49.156;7.810;2022-10-16T12:28:31;3.28;;;2.05;;
75593;SDS011;64176;49.156;7.810;2022-10-16T12:31:17;2.83;;;1.80;;
75593;SDS011;64176;49.156;7.810;2022-10-16T12:34:02;8.40;;;5.63;;
75593;SDS011;64176;49.156;7.810;2022-10-16T12:36:47;1.77;;;1.35;;
75593;SDS011;64176;49.156;7.810;2022-10-16T12:39:32;3.67;;;1.73;;
75593;SDS011;64176;49.156;7.810;2022-10-16T12:42:21;3.50;;;2.22;;
75593;SDS011;64176;49.156;7.810;2022-10-16T12:48:20;2.88;;;1.90;;
75593;SDS011;64176;49.156;7.810;2022-10-16T12:51:10;3.40;;;1.90;;
75593;SDS011;64176;49.156;7.810;2022-10-16T12:54:16;3.47;;;1.83;;
75593;SDS011;64176;49.156;7.810;2022-10-16T13:06:20;3.25;;;2.15;;
75593;SDS011;64176;49.156;7.810;2022-10-16T13:12:25;4.40;;;2.60;;
75593;SDS011;64176;49.156;7.810;2022-10-16T13:21:51;3.60;;;1.95;;
75593;SDS011;64176;49.156;7.810;2022-10-16T13:28:08;4.57;;;2.42;;
75593;SDS011;64176;49.156;7.810;2022-10-16T13:30:56;3.67;;;2.17;;
75593;SDS011;64176;49.156;7.810;2022-10-16T13:33:43;5.80;;;2.40;;
75593;SDS011;64176;49.156;7.810;2022-10-16T13:36:42;8.02;;;2.75;;
75593;SDS011;64176;49.156;7.810;2022-10-16T13:39:28;6.57;;;2.22;;
75593;SDS011;64176;49.156;7.810;2022-10-16T13:42:22;6.15;;;2.35;;
75593;SDS011;64176;49.156;7.810;2022-10-16T13:45:16;5.60;;;2.13;;
75593;SDS011;64176;49.156;7.810;2022-10-16T13:48:05;6.82;;;2.25;;
75593;SDS011;64176;49.156;7.810;2022-10-16T13:51:03;6.38;;;2.35;;
75593;SDS011;64176;49.156;7.810;2022-10-16T13:54:01;4.28;;;2.25;;
75593;SDS011;64176;49.156;7.810;2022-10-16T13:56:45;6.25;;;2.17;;
75593;SDS011;64176;49.156;7.810;2022-10-16T13:59:33;7.65;;;2.38;;
75593;SDS011;64176;49.156;7.810;2022-10-16T14:02:29;4.90;;;2.85;;
75593;SDS011;64176;49.156;7.810;2022-10-16T14:05:18;4.88;;;3.45;;
75593;SDS011;64176;49.156;7.810;2022-10-16T14:08:02;8.43;;;4.30;;
75593;SDS011;64176;49.156;7.810;2022-10-16T14:10:50;8.07;;;3.20;;
75593;SDS011;64176;49.156;7.810;2022-10-16T14:13:37;6.50;;;3.70;;
75593;SDS011;64176;49.156;7.810;2022-10-16T14:16:27;2.60;;;2.40;;
75593;SDS011;64176;49.156;7.810;2022-10-16T14:19:24;4.75;;;2.30;;
75593;SDS011;64176;49.156;7.810;2022-10-16T14:28:18;2.83;;;1.80;;
75593;SDS011;64176;49.156;7.810;2022-10-16T14:31:19;2.15;;;1.65;;
75593;SDS011;64176;49.156;7.810;2022-10-16T14:37:27;3.28;;;2.58;;
75593;SDS011;64176;49.156;7.810;2022-10-16T14:40:14;3.95;;;2.20;;
75593;SDS011;64176;49.156;7.810;2022-10-16T14:43:04;5.03;;;2.40;;
75593;SDS011;64176;49.156;7.810;2022-10-16T14:45:52;3.90;;;2.40;;
75593;SDS011;64176;49.156;7.810;2022-10-16T14:48:43;3.20;;;2.00;;
75593;SDS011;64176;49.156;7.810;2022-10-16T14:51:29;5.53;;;1.77;;
75593;SDS011;64176;49.156;7.810;2022-10-16T14:54:15;5.38;;;2.22;;
75593;SDS011;64176;49.156;7.810;2022-10-16T14:57:03;5.38;;;2.40;;
75593;SDS011;64176;49.156;7.810;2022-10-16T14:59:48;6.50;;;3.30;;
75593;SDS011;64176;49.156;7.810;2022-10-16T15:02:37;7.65;;;2.72;;
75593;SDS011;64176;49.156;7.810;2022-10-16T15:05:25;5.82;;;2.05;;
75593;SDS011;64176;49.156;7.810;2022-10-16T15:08:10;10.95;;;2.17;;
75593;SDS011;64176;49.156;7.810;2022-10-16T15:10:56;6.32;;;2.50;;
75593;SDS011;64176;49.156;7.810;2022-10-16T15:13:40;5.63;;;2.78;;
75593;SDS011;64176;49.156;7.810;2022-10-16T15:16:24;4.93;;;2.60;;
75593;SDS011;64176;49.156;7.810;2022-10-16T15:19:08;6.07;;;3.15;;
75593;SDS011;64176;49.156;7.810;2022-10-16T15:21:53;7.68;;;2.63;;
75593;SDS011;64176;49.156;7.810;2022-10-16T15:24:37;4.75;;;2.75;;
75593;SDS011;64176;49.156;7.810;2022-10-16T15:27:21;6.40;;;4.20;;
75593;SDS011;64176;49.156;7.810;2022-10-16T15:30:05;5.68;;;5.18;;
75593;SDS011;64176;49.156;7.810;2022-10-16T15:32:52;5.85;;;3.35;;
75593;SDS011;64176;49.156;7.810;2022-10-16T15:35:37;6.32;;;2.55;;
75593;SDS011;64176;49.156;7.810;2022-10-16T15:38:21;5.97;;;3.13;;
75593;SDS011;64176;49.156;7.810;2022-10-16T15:41:06;4.78;;;2.58;;
75593;SDS011;64176;49.156;7.810;2022-10-16T15:43:50;8.05;;;3.17;;
75593;SDS011;64176;49.156;7.810;2022-10-16T15:46:34;6.07;;;3.13;;
75593;SDS011;64176;49.156;7.810;2022-10-16T15:49:19;6.13;;;3.17;;
75593;SDS011;64176;49.156;7.810;2022-10-16T15:52:03;5.38;;;3.05;;
75593;SDS011;64176;49.156;7.810;2022-10-16T15:54:47;5.75;;;3.10;;
75593;SDS011;64176;49.156;7.810;2022-10-16T15:57:34;13.65;;;4.90;;
75593;SDS011;64176;49.156;7.810;2022-10-16T16:00:21;10.68;;;4.85;;
75593;SDS011;64176;49.156;7.810;2022-10-16T16:03:06;10.10;;;5.82;;
75593;SDS011;64176;49.156;7.810;2022-10-16T16:05:50;7.75;;;5.28;;
75593;SDS011;64176;49.156;7.810;2022-10-16T16:08:35;5.82;;;5.13;;
75593;SDS011;64176;49.156;7.810;2022-10-16T16:11:19;4.82;;;3.70;;
75593;SDS011;64176;49.156;7.810;2022-10-16T16:14:10;12.18;;;4.45;;
75593;SDS011;64176;49.156;7.810;2022-10-16T16:16:57;9.10;;;3.53;;
75593;SDS011;64176;49.156;7.810;2022-10-16T16:19:41;11.18;;;6.13;;
75593;SDS011;64176;49.156;7.810;2022-10-16T16:22:25;9.65;;;4.70;;
75593;SDS011;64176;49.156;7.810;2022-10-16T16:25:09;36.47;;;17.45;;
75593;SDS011;64176;49.156;7.810;2022-10-16T16:27:54;26.65;;;15.52;;
75593;SDS011;64176;49.156;7.810;2022-10-16T16:30:38;18.60;;;11.85;;
75593;SDS011;64176;49.156;7.810;2022-10-16T16:33:22;14.25;;;7.70;;
75593;SDS011;64176;49.156;7.810;2022-10-16T16:36:06;10.57;;;6.35;;
75593;SDS011;64176;49.156;7.810;2022-10-16T16:38:51;21.27;;;13.57;;
75593;SDS011;64176;49.156;7.810;2022-10-16T16:44:21;8.20;;;4.72;;
75593;SDS011;64176;49.156;7.810;2022-10-16T16:47:05;9.95;;;5.53;;
75593;SDS011;64176;49.156;7.810;2022-10-16T16:49:49;12.02;;;6.30;;
75593;SDS011;64176;49.156;7.810;2022-10-16T16:52:34;9.68;;;6.05;;
75593;SDS011;64176;49.156;7.810;2022-10-16T16:55:19;16.30;;;8.65;;
75593;SDS011;64176;49.156;7.810;2022-10-16T16:58:03;12.82;;;7.70;;
75593;SDS011;64176;49.156;7.810;2022-10-16T17:00:48;15.43;;;9.27;;
75593;SDS011;64176;49.156;7.810;2022-10-16T17:03:32;20.13;;;9.80;;
75593;SDS011;64176;49.156;7.810;2022-10-16T17:06:22;16.13;;;8.13;;
75593;SDS011;64176;49.156;7.810;2022-10-16T17:09:09;22.73;;;9.95;;
75593;SDS011;64176;49.156;7.810;2022-10-16T17:11:56;20.88;;;9.57;;
75593;SDS011;64176;49.156;7.810;2022-10-16T17:14:40;22.50;;;10.23;;
75593;SDS011;64176;49.156;7.810;2022-10-16T17:17:26;17.25;;;9.05;;
75593;SDS011;64176;49.156;7.810;2022-10-16T17:20:10;13.55;;;9.02;;
75593;SDS011;64176;49.156;7.810;2022-10-16T17:22:54;14.10;;;8.52;;
75593;SDS011;64176;49.156;7.810;2022-10-16T17:25:39;13.70;;;7.95;;
75593;SDS011;64176;49.156;7.810;2022-10-16T17:28:23;12.40;;;7.35;;
75593;SDS011;64176;49.156;7.810;2022-10-16T17:31:12;12.93;;;8.13;;
75593;SDS011;64176;49.156;7.810;2022-10-16T17:33:59;11.85;;;7.28;;
75593;SDS011;64176;49.156;7.810;2022-10-16T17:36:44;10.68;;;6.47;;
75593;SDS011;64176;49.156;7.810;2022-10-16T17:39:29;12.88;;;6.63;;
75593;SDS011;64176;49.156;7.810;2022-10-16T17:42:14;8.88;;;6.53;;
75593;SDS011;64176;49.156;7.810;2022-10-16T17:44:58;13.75;;;7.47;;
75593;SDS011;64176;49.156;7.810;2022-10-16T17:47:42;10.35;;;7.38;;
75593;SDS011;64176;49.156;7.810;2022-10-16T17:50:27;11.40;;;7.57;;
75593;SDS011;64176;49.156;7.810;2022-10-16T17:53:11;25.65;;;8.93;;
75593;SDS011;64176;49.156;7.810;2022-10-16T17:56:00;14.35;;;8.93;;
75593;SDS011;64176;49.156;7.810;2022-10-16T17:58:50;13.65;;;8.63;;
75593;SDS011;64176;49.156;7.810;2022-10-16T18:01:37;13.07;;;8.25;;
75593;SDS011;64176;49.156;7.810;2022-10-16T18:04:24;10.65;;;5.22;;
75593;SDS011;64176;49.156;7.810;2022-10-16T18:07:11;10.90;;;6.80;;
75593;SDS011;64176;49.156;7.810;2022-10-16T18:09:58;18.67;;;6.05;;
75593;SDS011;64176;49.156;7.810;2022-10-16T18:12:42;7.97;;;5.18;;
75593;SDS011;64176;49.156;7.810;2022-10-16T18:18:18;10.45;;;8.75;;
75593;SDS011;64176;49.156;7.810;2022-10-16T18:21:03;12.65;;;8.13;;
75593;SDS011;64176;49.156;7.810;2022-10-16T18:23:49;9.82;;;5.80;;
75593;SDS011;64176;49.156;7.810;2022-10-16T18:26:33;15.05;;;8.15;;
75593;SDS011;64176;49.156;7.810;2022-10-16T18:29:17;12.98;;;9.70;;
75593;SDS011;64176;49.156;7.810;2022-10-16T18:32:02;16.48;;;9.20;;
75593;SDS011;64176;49.156;7.810;2022-10-16T18:34:46;17.83;;;8.10;;
75593;SDS011;64176;49.156;7.810;2022-10-16T18:37:30;16.88;;;10.70;;
75593;SDS011;64176;49.156;7.810;2022-10-16T18:40:17;15.50;;;10.57;;
75593;SDS011;64176;49.156;7.810;2022-10-16T18:43:04;15.95;;;10.23;;
75593;SDS011;64176;49.156;7.810;2022-10-16T18:45:57;20.55;;;11.13;;
75593;SDS011;64176;49.156;7.810;2022-10-16T18:48:46;21.33;;;12.07;;
75593;SDS011;64176;49.156;7.810;2022-10-16T18:51:31;25.95;;;14.95;;
75593;SDS011;64176;49.156;7.810;2022-10-16T18:54:18;26.17;;;14.95;;
75593;SDS011;64176;49.156;7.810;2022-10-16T18:57:02;32.28;;;15.10;;
75593;SDS011;64176;49.156;7.810;2022-10-16T18:59:47;31.95;;;15.32;;
75593;SDS011;64176;49.156;7.810;2022-10-16T19:02:31;25.65;;;13.85;;
75593;SDS011;64176;49.156;7.810;2022-10-16T19:05:18;30.38;;;14.48;;
75593;SDS011;64176;49.156;7.810;2022-10-16T19:08:04;29.67;;;13.50;;
75593;SDS011;64176;49.156;7.810;2022-10-16T19:10:48;27.80;;;15.20;;
75593;SDS011;64176;49.156;7.810;2022-10-16T19:13:32;34.50;;;17.15;;